sensor_id;sensor_type;location;lat;lon;timestamp;P1;durP1;ratioP1;P2;durP2;ratioP2
48951;SDS011;34758;42.148;24.744;2023-04-24T00:02:21;7.00;;;4.18;;
48951;SDS011;34758;42.148;24.744;2023-04-24T00:04:50;8.25;;;4.60;;
48951;SDS011;34758;42.148;24.744;2023-04-24T00:07:18;7.75;;;4.60;;
48951;SDS011;34758;42.148;24.744;2023-04-24T00:09:46;7.43;;;4.10;;
48951;SDS011;34758;42.148;24.744;2023-04-24T00:12:13;5.32;;;4.18;;
48951;SDS011;34758;42.148;24.744;2023-04-24T00:14:40;8.63;;;4.32;;
48951;SDS011;34758;42.148;24.744;2023-04-24T00:17:07;8.00;;;4.40;;
48951;SDS011;34758;42.148;24.744;2023-04-24T00:19:34;7.88;;;4.50;;
48951;SDS011;34758;42.148;24.744;2023-04-24T00:22:01;8.10;;;4.60;;
48951;SDS011;34758;42.148;24.744;2023-04-24T00:24:30;5.82;;;3.85;;
48951;SDS011;34758;42.148;24.744;2023-04-24T00:26:57;8.98;;;4.10;;
48951;SDS011;34758;42.148;24.744;2023-04-24T00:29:26;8.05;;;4.15;;
48951;SDS011;34758;42.148;24.744;2023-04-24T00:31:53;5.45;;;4.20;;
48951;SDS011;34758;42.148;24.744;2023-04-24T00:34:22;10.95;;;4.18;;
48951;SDS011;34758;42.148;24.744;2023-04-24T00:36:52;8.38;;;4.20;;
48951;SDS011;34758;42.148;24.744;2023-04-24T00:39:19;6.55;;;4.10;;
48951;SDS011;34758;42.148;24.744;2023-04-24T00:41:48;8.02;;;3.95;;
48951;SDS011;34758;42.148;24.744;2023-04-24T00:44:16;7.10;;;4.30;;
48951;SDS011;34758;42.148;24.744;2023-04-24T00:46:43;6.38;;;4.25;;
48951;SDS011;34758;42.148;24.744;2023-04-24T00:49:09;9.38;;;4.22;;
48951;SDS011;34758;42.148;24.744;2023-04-24T00:51:37;9.45;;;4.35;;
48951;SDS011;34758;42.148;24.744;2023-04-24T00:54:03;5.43;;;4.05;;
48951;SDS011;34758;42.148;24.744;2023-04-24T00:56:30;10.35;;;4.20;;
48951;SDS011;34758;42.148;24.744;2023-04-24T00:58:58;7.45;;;3.95;;
48951;SDS011;34758;42.148;24.744;2023-04-24T01:01:26;7.03;;;3.85;;
48951;SDS011;34758;42.148;24.744;2023-04-24T01:03:52;7.85;;;4.22;;
48951;SDS011;34758;42.148;24.744;2023-04-24T01:06:20;7.50;;;3.80;;
48951;SDS011;34758;42.148;24.744;2023-04-24T01:08:48;8.02;;;3.83;;
48951;SDS011;34758;42.148;24.744;2023-04-24T01:11:16;8.98;;;4.53;;
48951;SDS011;34758;42.148;24.744;2023-04-24T01:13:42;8.88;;;4.75;;
48951;SDS011;34758;42.148;24.744;2023-04-24T01:16:10;9.25;;;4.47;;
48951;SDS011;34758;42.148;24.744;2023-04-24T01:18:37;9.32;;;5.65;;
48951;SDS011;34758;42.148;24.744;2023-04-24T01:21:04;11.75;;;5.75;;
48951;SDS011;34758;42.148;24.744;2023-04-24T01:23:34;8.32;;;4.78;;
48951;SDS011;34758;42.148;24.744;2023-04-24T01:26:02;9.05;;;4.75;;
48951;SDS011;34758;42.148;24.744;2023-04-24T01:28:30;9.00;;;4.82;;
48951;SDS011;34758;42.148;24.744;2023-04-24T01:30:58;6.68;;;5.15;;
48951;SDS011;34758;42.148;24.744;2023-04-24T01:33:25;10.70;;;4.90;;
48951;SDS011;34758;42.148;24.744;2023-04-24T01:35:52;8.02;;;5.70;;
48951;SDS011;34758;42.148;24.744;2023-04-24T01:38:19;7.28;;;5.00;;
48951;SDS011;34758;42.148;24.744;2023-04-24T01:40:47;9.82;;;6.55;;
48951;SDS011;34758;42.148;24.744;2023-04-24T01:43:14;16.65;;;6.50;;
48951;SDS011;34758;42.148;24.744;2023-04-24T01:45:40;10.13;;;5.95;;
48951;SDS011;34758;42.148;24.744;2023-04-24T01:48:07;11.00;;;7.15;;
48951;SDS011;34758;42.148;24.744;2023-04-24T01:50:37;11.63;;;6.50;;
48951;SDS011;34758;42.148;24.744;2023-04-24T01:53:03;14.98;;;6.43;;
48951;SDS011;34758;42.148;24.744;2023-04-24T01:55:31;8.98;;;5.60;;
48951;SDS011;34758;42.148;24.744;2023-04-24T01:58:01;9.95;;;6.13;;
48951;SDS011;34758;42.148;24.744;2023-04-24T02:00:28;11.25;;;5.28;;
48951;SDS011;34758;42.148;24.744;2023-04-24T02:02:55;11.13;;;5.72;;
48951;SDS011;34758;42.148;24.744;2023-04-24T02:05:23;8.13;;;5.03;;
48951;SDS011;34758;42.148;24.744;2023-04-24T02:07:49;6.05;;;5.28;;
48951;SDS011;34758;42.148;24.744;2023-04-24T02:10:16;7.22;;;4.90;;
48951;SDS011;34758;42.148;24.744;2023-04-24T02:12:44;9.15;;;5.38;;
48951;SDS011;34758;42.148;24.744;2023-04-24T02:15:13;8.70;;;4.93;;
48951;SDS011;34758;42.148;24.744;2023-04-24T02:17:40;6.35;;;4.45;;
48951;SDS011;34758;42.148;24.744;2023-04-24T02:20:07;6.00;;;4.47;;
48951;SDS011;34758;42.148;24.744;2023-04-24T02:22:34;9.48;;;5.00;;
48951;SDS011;34758;42.148;24.744;2023-04-24T02:25:01;8.57;;;5.10;;
48951;SDS011;34758;42.148;24.744;2023-04-24T02:27:29;8.77;;;4.85;;
48951;SDS011;34758;42.148;24.744;2023-04-24T02:29:56;7.32;;;5.05;;
48951;SDS011;34758;42.148;24.744;2023-04-24T02:32:24;8.23;;;4.78;;
48951;SDS011;34758;42.148;24.744;2023-04-24T02:34:51;6.45;;;5.43;;
48951;SDS011;34758;42.148;24.744;2023-04-24T02:37:19;8.18;;;5.03;;
48951;SDS011;34758;42.148;24.744;2023-04-24T02:39:46;8.95;;;4.85;;
48951;SDS011;34758;42.148;24.744;2023-04-24T02:42:13;8.93;;;4.75;;
48951;SDS011;34758;42.148;24.744;2023-04-24T02:44:40;7.80;;;4.65;;
48951;SDS011;34758;42.148;24.744;2023-04-24T02:47:07;7.50;;;4.50;;
48951;SDS011;34758;42.148;24.744;2023-04-24T02:49:36;8.65;;;4.68;;
48951;SDS011;34758;42.148;24.744;2023-04-24T02:52:04;8.38;;;4.93;;
48951;SDS011;34758;42.148;24.744;2023-04-24T02:54:33;8.82;;;4.95;;
48951;SDS011;34758;42.148;24.744;2023-04-24T02:57:00;8.82;;;4.78;;
48951;SDS011;34758;42.148;24.744;2023-04-24T02:59:28;10.25;;;4.90;;
48951;SDS011;34758;42.148;24.744;2023-04-24T03:01:55;10.25;;;5.22;;
48951;SDS011;34758;42.148;24.744;2023-04-24T03:04:23;9.55;;;5.60;;
48951;SDS011;34758;42.148;24.744;2023-04-24T03:06:52;7.50;;;5.25;;
48951;SDS011;34758;42.148;24.744;2023-04-24T03:09:20;11.32;;;5.30;;
48951;SDS011;34758;42.148;24.744;2023-04-24T03:11:47;9.43;;;4.95;;
48951;SDS011;34758;42.148;24.744;2023-04-24T03:14:14;10.20;;;5.18;;
48951;SDS011;34758;42.148;24.744;2023-04-24T03:16:45;6.55;;;4.65;;
48951;SDS011;34758;42.148;24.744;2023-04-24T03:19:12;9.90;;;4.70;;
48951;SDS011;34758;42.148;24.744;2023-04-24T03:21:39;5.60;;;5.00;;
48951;SDS011;34758;42.148;24.744;2023-04-24T03:24:10;10.88;;;5.38;;
48951;SDS011;34758;42.148;24.744;2023-04-24T03:26:37;8.60;;;4.90;;
48951;SDS011;34758;42.148;24.744;2023-04-24T03:29:04;8.02;;;5.20;;
48951;SDS011;34758;42.148;24.744;2023-04-24T03:31:35;9.70;;;5.75;;
48951;SDS011;34758;42.148;24.744;2023-04-24T03:34:02;11.20;;;5.35;;
48951;SDS011;34758;42.148;24.744;2023-04-24T03:36:29;7.35;;;5.30;;
48951;SDS011;34758;42.148;24.744;2023-04-24T03:38:58;8.90;;;5.10;;
48951;SDS011;34758;42.148;24.744;2023-04-24T03:41:29;10.57;;;5.80;;
48951;SDS011;34758;42.148;24.744;2023-04-24T03:43:57;7.90;;;4.87;;
48951;SDS011;34758;42.148;24.744;2023-04-24T03:46:25;11.90;;;5.10;;
48951;SDS011;34758;42.148;24.744;2023-04-24T03:48:52;9.25;;;5.80;;
48951;SDS011;34758;42.148;24.744;2023-04-24T03:51:18;8.75;;;5.05;;
48951;SDS011;34758;42.148;24.744;2023-04-24T03:53:48;10.75;;;5.40;;
48951;SDS011;34758;42.148;24.744;2023-04-24T03:56:15;9.82;;;5.15;;
48951;SDS011;34758;42.148;24.744;2023-04-24T03:58:44;16.02;;;5.60;;
48951;SDS011;34758;42.148;24.744;2023-04-24T04:01:10;10.80;;;5.55;;
48951;SDS011;34758;42.148;24.744;2023-04-24T04:03:39;9.30;;;4.97;;
48951;SDS011;34758;42.148;24.744;2023-04-24T04:06:06;10.65;;;6.10;;
48951;SDS011;34758;42.148;24.744;2023-04-24T04:08:33;12.05;;;5.82;;
48951;SDS011;34758;42.148;24.744;2023-04-24T04:11:01;9.65;;;6.30;;
48951;SDS011;34758;42.148;24.744;2023-04-24T04:13:28;10.65;;;6.22;;
48951;SDS011;34758;42.148;24.744;2023-04-24T04:15:57;10.23;;;6.50;;
48951;SDS011;34758;42.148;24.744;2023-04-24T04:18:24;13.00;;;7.10;;
48951;SDS011;34758;42.148;24.744;2023-04-24T04:20:51;11.13;;;6.38;;
48951;SDS011;34758;42.148;24.744;2023-04-24T04:23:18;11.10;;;6.70;;
48951;SDS011;34758;42.148;24.744;2023-04-24T04:25:46;9.70;;;6.63;;
48951;SDS011;34758;42.148;24.744;2023-04-24T04:28:15;12.98;;;6.75;;
48951;SDS011;34758;42.148;24.744;2023-04-24T04:30:45;9.77;;;6.82;;
48951;SDS011;34758;42.148;24.744;2023-04-24T04:33:13;14.13;;;7.95;;
48951;SDS011;34758;42.148;24.744;2023-04-24T04:35:41;11.77;;;7.78;;
48951;SDS011;34758;42.148;24.744;2023-04-24T04:38:08;11.80;;;7.40;;
48951;SDS011;34758;42.148;24.744;2023-04-24T04:40:36;11.98;;;8.00;;
48951;SDS011;34758;42.148;24.744;2023-04-24T04:43:03;11.77;;;7.97;;
48951;SDS011;34758;42.148;24.744;2023-04-24T04:45:31;13.05;;;8.50;;
48951;SDS011;34758;42.148;24.744;2023-04-24T04:47:59;12.30;;;7.63;;
48951;SDS011;34758;42.148;24.744;2023-04-24T04:50:28;14.68;;;7.72;;
48951;SDS011;34758;42.148;24.744;2023-04-24T04:52:56;11.40;;;7.57;;
48951;SDS011;34758;42.148;24.744;2023-04-24T04:55:22;17.33;;;7.47;;
48951;SDS011;34758;42.148;24.744;2023-04-24T04:57:50;9.52;;;7.70;;
48951;SDS011;34758;42.148;24.744;2023-04-24T05:00:18;11.18;;;7.40;;
48951;SDS011;34758;42.148;24.744;2023-04-24T05:02:45;9.77;;;6.32;;
48951;SDS011;34758;42.148;24.744;2023-04-24T05:05:12;11.27;;;6.72;;
48951;SDS011;34758;42.148;24.744;2023-04-24T05:07:41;9.68;;;7.07;;
48951;SDS011;34758;42.148;24.744;2023-04-24T05:10:09;11.48;;;7.68;;
48951;SDS011;34758;42.148;24.744;2023-04-24T05:12:36;14.52;;;7.65;;
48951;SDS011;34758;42.148;24.744;2023-04-24T05:15:04;13.05;;;6.80;;
48951;SDS011;34758;42.148;24.744;2023-04-24T05:17:32;10.48;;;7.40;;
48951;SDS011;34758;42.148;24.744;2023-04-24T05:19:59;10.48;;;7.32;;
48951;SDS011;34758;42.148;24.744;2023-04-24T05:22:27;12.43;;;6.45;;
48951;SDS011;34758;42.148;24.744;2023-04-24T05:24:55;10.98;;;6.50;;
48951;SDS011;34758;42.148;24.744;2023-04-24T05:27:23;15.98;;;6.10;;
48951;SDS011;34758;42.148;24.744;2023-04-24T05:29:50;10.32;;;6.57;;
48951;SDS011;34758;42.148;24.744;2023-04-24T05:32:17;11.23;;;6.53;;
48951;SDS011;34758;42.148;24.744;2023-04-24T05:34:44;13.25;;;6.30;;
48951;SDS011;34758;42.148;24.744;2023-04-24T05:37:13;17.65;;;7.63;;
48951;SDS011;34758;42.148;24.744;2023-04-24T05:39:40;11.65;;;6.45;;
48951;SDS011;34758;42.148;24.744;2023-04-24T05:42:09;8.30;;;5.72;;
48951;SDS011;34758;42.148;24.744;2023-04-24T05:44:36;13.15;;;5.80;;
48951;SDS011;34758;42.148;24.744;2023-04-24T05:47:03;10.82;;;5.22;;
48951;SDS011;34758;42.148;24.744;2023-04-24T05:49:31;12.20;;;5.90;;
48951;SDS011;34758;42.148;24.744;2023-04-24T05:51:58;12.45;;;5.70;;
48951;SDS011;34758;42.148;24.744;2023-04-24T05:54:25;10.52;;;5.68;;
48951;SDS011;34758;42.148;24.744;2023-04-24T05:56:52;10.88;;;6.20;;
48951;SDS011;34758;42.148;24.744;2023-04-24T05:59:22;11.18;;;7.32;;
48951;SDS011;34758;42.148;24.744;2023-04-24T06:01:50;16.13;;;7.90;;
48951;SDS011;34758;42.148;24.744;2023-04-24T06:04:18;12.25;;;7.50;;
48951;SDS011;34758;42.148;24.744;2023-04-24T06:06:45;8.95;;;6.57;;
48951;SDS011;34758;42.148;24.744;2023-04-24T06:09:16;9.20;;;5.57;;
48951;SDS011;34758;42.148;24.744;2023-04-24T06:11:44;9.65;;;5.53;;
48951;SDS011;34758;42.148;24.744;2023-04-24T06:14:12;9.48;;;4.75;;
48951;SDS011;34758;42.148;24.744;2023-04-24T06:16:41;7.80;;;5.07;;
48951;SDS011;34758;42.148;24.744;2023-04-24T06:19:11;10.18;;;5.60;;
48951;SDS011;34758;42.148;24.744;2023-04-24T06:21:38;9.32;;;4.90;;
48951;SDS011;34758;42.148;24.744;2023-04-24T06:24:05;6.70;;;4.78;;
48951;SDS011;34758;42.148;24.744;2023-04-24T06:26:33;7.88;;;4.93;;
48951;SDS011;34758;42.148;24.744;2023-04-24T06:29:00;7.28;;;5.00;;
48951;SDS011;34758;42.148;24.744;2023-04-24T06:31:27;9.77;;;5.90;;
48951;SDS011;34758;42.148;24.744;2023-04-24T06:33:56;8.98;;;5.40;;
48951;SDS011;34758;42.148;24.744;2023-04-24T06:36:23;10.48;;;5.10;;
48951;SDS011;34758;42.148;24.744;2023-04-24T06:38:50;7.53;;;4.82;;
48951;SDS011;34758;42.148;24.744;2023-04-24T06:41:17;13.38;;;5.40;;
48951;SDS011;34758;42.148;24.744;2023-04-24T06:43:46;12.75;;;5.00;;
48951;SDS011;34758;42.148;24.744;2023-04-24T06:46:13;8.38;;;5.45;;
48951;SDS011;34758;42.148;24.744;2023-04-24T06:48:41;7.55;;;4.85;;
48951;SDS011;34758;42.148;24.744;2023-04-24T06:51:10;10.48;;;4.65;;
48951;SDS011;34758;42.148;24.744;2023-04-24T06:53:37;10.90;;;5.18;;
48951;SDS011;34758;42.148;24.744;2023-04-24T06:56:03;12.75;;;5.53;;
48951;SDS011;34758;42.148;24.744;2023-04-24T06:58:31;7.07;;;4.50;;
48951;SDS011;34758;42.148;24.744;2023-04-24T07:00:57;10.20;;;4.57;;
48951;SDS011;34758;42.148;24.744;2023-04-24T07:03:25;12.27;;;5.30;;
48951;SDS011;34758;42.148;24.744;2023-04-24T07:05:51;8.98;;;4.63;;
48951;SDS011;34758;42.148;24.744;2023-04-24T07:08:20;7.38;;;4.78;;
48951;SDS011;34758;42.148;24.744;2023-04-24T07:10:48;9.82;;;5.60;;
48951;SDS011;34758;42.148;24.744;2023-04-24T07:13:16;8.93;;;4.50;;
48951;SDS011;34758;42.148;24.744;2023-04-24T07:15:43;8.77;;;4.32;;
48951;SDS011;34758;42.148;24.744;2023-04-24T07:18:10;8.18;;;4.00;;
48951;SDS011;34758;42.148;24.744;2023-04-24T07:20:38;10.48;;;4.75;;
48951;SDS011;34758;42.148;24.744;2023-04-24T07:23:06;7.63;;;4.43;;
48951;SDS011;34758;42.148;24.744;2023-04-24T07:25:36;8.25;;;5.63;;
48951;SDS011;34758;42.148;24.744;2023-04-24T07:28:03;11.80;;;5.28;;
48951;SDS011;34758;42.148;24.744;2023-04-24T07:30:30;13.43;;;5.68;;
48951;SDS011;34758;42.148;24.744;2023-04-24T07:32:57;7.97;;;4.97;;
48951;SDS011;34758;42.148;24.744;2023-04-24T07:35:25;14.23;;;4.82;;
48951;SDS011;34758;42.148;24.744;2023-04-24T07:37:52;9.60;;;4.93;;
48951;SDS011;34758;42.148;24.744;2023-04-24T07:40:19;8.95;;;5.20;;
48951;SDS011;34758;42.148;24.744;2023-04-24T07:42:48;8.63;;;4.93;;
48951;SDS011;34758;42.148;24.744;2023-04-24T07:45:16;7.30;;;4.50;;
48951;SDS011;34758;42.148;24.744;2023-04-24T07:47:43;11.85;;;5.43;;
48951;SDS011;34758;42.148;24.744;2023-04-24T07:50:12;9.63;;;4.88;;
48951;SDS011;34758;42.148;24.744;2023-04-24T07:52:39;9.13;;;5.10;;
48951;SDS011;34758;42.148;24.744;2023-04-24T07:55:06;10.45;;;5.10;;
48951;SDS011;34758;42.148;24.744;2023-04-24T07:57:33;7.00;;;4.80;;
48951;SDS011;34758;42.148;24.744;2023-04-24T08:00:03;8.30;;;5.43;;
48951;SDS011;34758;42.148;24.744;2023-04-24T08:02:31;9.63;;;5.70;;
48951;SDS011;34758;42.148;24.744;2023-04-24T08:05:01;10.65;;;5.65;;
48951;SDS011;34758;42.148;24.744;2023-04-24T08:07:28;10.60;;;5.40;;
48951;SDS011;34758;42.148;24.744;2023-04-24T08:09:56;8.93;;;5.28;;
48951;SDS011;34758;42.148;24.744;2023-04-24T08:12:24;7.25;;;4.88;;
48951;SDS011;34758;42.148;24.744;2023-04-24T08:14:51;10.95;;;5.00;;
48951;SDS011;34758;42.148;24.744;2023-04-24T08:17:19;7.47;;;4.85;;
48951;SDS011;34758;42.148;24.744;2023-04-24T08:19:46;10.57;;;5.68;;
48951;SDS011;34758;42.148;24.744;2023-04-24T08:22:14;13.00;;;5.25;;
48951;SDS011;34758;42.148;24.744;2023-04-24T08:24:42;8.20;;;5.45;;
48951;SDS011;34758;42.148;24.744;2023-04-24T08:27:09;11.38;;;5.47;;
48951;SDS011;34758;42.148;24.744;2023-04-24T08:29:37;8.20;;;5.13;;
48951;SDS011;34758;42.148;24.744;2023-04-24T08:32:04;9.98;;;5.38;;
48951;SDS011;34758;42.148;24.744;2023-04-24T08:34:33;7.32;;;5.10;;
48951;SDS011;34758;42.148;24.744;2023-04-24T08:36:59;13.98;;;5.68;;
48951;SDS011;34758;42.148;24.744;2023-04-24T08:39:26;10.15;;;5.13;;
48951;SDS011;34758;42.148;24.744;2023-04-24T08:41:54;10.05;;;6.03;;
48951;SDS011;34758;42.148;24.744;2023-04-24T08:44:21;17.48;;;8.15;;
48951;SDS011;34758;42.148;24.744;2023-04-24T08:46:48;8.93;;;5.93;;
48951;SDS011;34758;42.148;24.744;2023-04-24T08:49:18;8.45;;;5.15;;
48951;SDS011;34758;42.148;24.744;2023-04-24T08:51:46;10.10;;;5.70;;
48951;SDS011;34758;42.148;24.744;2023-04-24T08:54:14;11.80;;;5.70;;
48951;SDS011;34758;42.148;24.744;2023-04-24T08:56:42;7.82;;;5.90;;
48951;SDS011;34758;42.148;24.744;2023-04-24T08:59:12;13.40;;;6.97;;
48951;SDS011;34758;42.148;24.744;2023-04-24T09:01:41;9.50;;;6.10;;
48951;SDS011;34758;42.148;24.744;2023-04-24T09:04:08;10.48;;;6.05;;
48951;SDS011;34758;42.148;24.744;2023-04-24T09:06:37;6.13;;;4.95;;
48951;SDS011;34758;42.148;24.744;2023-04-24T09:09:06;9.35;;;4.75;;
48951;SDS011;34758;42.148;24.744;2023-04-24T09:11:33;7.32;;;5.70;;
48951;SDS011;34758;42.148;24.744;2023-04-24T09:14:00;6.93;;;5.28;;
48951;SDS011;34758;42.148;24.744;2023-04-24T09:16:27;9.50;;;5.38;;
48951;SDS011;34758;42.148;24.744;2023-04-24T09:18:58;13.27;;;6.47;;
48951;SDS011;34758;42.148;24.744;2023-04-24T09:21:26;9.48;;;5.72;;
48951;SDS011;34758;42.148;24.744;2023-04-24T09:24:01;11.45;;;6.63;;
48951;SDS011;34758;42.148;24.744;2023-04-24T09:26:34;6.60;;;5.93;;
48951;SDS011;34758;42.148;24.744;2023-04-24T09:29:02;10.95;;;5.90;;
48951;SDS011;34758;42.148;24.744;2023-04-24T09:31:30;9.90;;;5.07;;
48951;SDS011;34758;42.148;24.744;2023-04-24T09:33:58;9.45;;;5.05;;
48951;SDS011;34758;42.148;24.744;2023-04-24T09:36:29;8.13;;;5.78;;
48951;SDS011;34758;42.148;24.744;2023-04-24T09:39:02;13.07;;;6.25;;
48951;SDS011;34758;42.148;24.744;2023-04-24T09:41:35;9.85;;;6.45;;
48951;SDS011;34758;42.148;24.744;2023-04-24T09:44:10;12.35;;;5.50;;
48951;SDS011;34758;42.148;24.744;2023-04-24T09:46:39;12.63;;;7.15;;
48951;SDS011;34758;42.148;24.744;2023-04-24T09:49:08;11.05;;;6.20;;
48951;SDS011;34758;42.148;24.744;2023-04-24T09:51:38;13.85;;;6.60;;
48951;SDS011;34758;42.148;24.744;2023-04-24T09:54:11;13.70;;;7.13;;
48951;SDS011;34758;42.148;24.744;2023-04-24T09:56:43;9.13;;;5.60;;
48951;SDS011;34758;42.148;24.744;2023-04-24T09:59:11;8.63;;;4.95;;
48951;SDS011;34758;42.148;24.744;2023-04-24T10:01:39;8.18;;;5.18;;
48951;SDS011;34758;42.148;24.744;2023-04-24T10:04:16;12.55;;;6.65;;
48951;SDS011;34758;42.148;24.744;2023-04-24T10:06:45;7.68;;;5.85;;
48951;SDS011;34758;42.148;24.744;2023-04-24T10:09:14;7.05;;;5.55;;
48951;SDS011;34758;42.148;24.744;2023-04-24T10:11:41;6.57;;;5.32;;
48951;SDS011;34758;42.148;24.744;2023-04-24T10:14:12;10.48;;;6.10;;
48951;SDS011;34758;42.148;24.744;2023-04-24T10:16:39;9.45;;;6.05;;
48951;SDS011;34758;42.148;24.744;2023-04-24T10:19:07;9.38;;;6.15;;
48951;SDS011;34758;42.148;24.744;2023-04-24T10:21:34;10.77;;;6.20;;
48951;SDS011;34758;42.148;24.744;2023-04-24T10:24:03;11.65;;;6.93;;
48951;SDS011;34758;42.148;24.744;2023-04-24T10:26:32;9.38;;;6.45;;
48951;SDS011;34758;42.148;24.744;2023-04-24T10:29:01;8.25;;;6.35;;
48951;SDS011;34758;42.148;24.744;2023-04-24T10:31:30;5.32;;;4.82;;
48951;SDS011;34758;42.148;24.744;2023-04-24T10:33:58;6.78;;;4.53;;
48951;SDS011;34758;42.148;24.744;2023-04-24T10:36:26;6.25;;;4.97;;
48951;SDS011;34758;42.148;24.744;2023-04-24T10:38:54;10.55;;;5.28;;
48951;SDS011;34758;42.148;24.744;2023-04-24T10:41:23;7.75;;;5.35;;
48951;SDS011;34758;42.148;24.744;2023-04-24T10:44:05;7.68;;;4.10;;
48951;SDS011;34758;42.148;24.744;2023-04-24T10:46:33;7.07;;;4.67;;
48951;SDS011;34758;42.148;24.744;2023-04-24T10:49:00;9.10;;;4.57;;
48951;SDS011;34758;42.148;24.744;2023-04-24T10:51:44;5.75;;;4.20;;
48951;SDS011;34758;42.148;24.744;2023-04-24T10:54:22;6.13;;;4.57;;
48951;SDS011;34758;42.148;24.744;2023-04-24T10:56:50;5.38;;;4.10;;
48951;SDS011;34758;42.148;24.744;2023-04-24T10:59:25;6.93;;;3.75;;
48951;SDS011;34758;42.148;24.744;2023-04-24T11:01:53;4.95;;;3.95;;
48951;SDS011;34758;42.148;24.744;2023-04-24T11:04:31;6.93;;;3.95;;
48951;SDS011;34758;42.148;24.744;2023-04-24T11:07:00;5.50;;;4.25;;
48951;SDS011;34758;42.148;24.744;2023-04-24T11:09:27;7.00;;;3.53;;
48951;SDS011;34758;42.148;24.744;2023-04-24T11:12:02;7.50;;;3.88;;
48951;SDS011;34758;42.148;24.744;2023-04-24T11:17:34;6.10;;;3.88;;
48951;SDS011;34758;42.148;24.744;2023-04-24T11:20:03;4.97;;;3.45;;
48951;SDS011;34758;42.148;24.744;2023-04-24T11:22:33;4.55;;;3.40;;
48951;SDS011;34758;42.148;24.744;2023-04-24T11:25:01;5.72;;;3.80;;
48951;SDS011;34758;42.148;24.744;2023-04-24T11:27:30;6.95;;;4.40;;
48951;SDS011;34758;42.148;24.744;2023-04-24T11:29:59;5.85;;;3.38;;
48951;SDS011;34758;42.148;24.744;2023-04-24T11:32:30;4.80;;;3.67;;
48951;SDS011;34758;42.148;24.744;2023-04-24T11:35:02;4.80;;;3.33;;
48951;SDS011;34758;42.148;24.744;2023-04-24T11:37:35;6.78;;;3.55;;
48951;SDS011;34758;42.148;24.744;2023-04-24T11:40:04;10.63;;;3.80;;
48951;SDS011;34758;42.148;24.744;2023-04-24T11:42:36;7.20;;;3.38;;
48951;SDS011;34758;42.148;24.744;2023-04-24T11:45:07;7.22;;;2.75;;
48951;SDS011;34758;42.148;24.744;2023-04-24T11:47:35;4.15;;;3.15;;
48951;SDS011;34758;42.148;24.744;2023-04-24T11:50:05;4.72;;;3.13;;
48951;SDS011;34758;42.148;24.744;2023-04-24T11:52:36;2.78;;;2.53;;
48951;SDS011;34758;42.148;24.744;2023-04-24T11:55:06;4.75;;;3.28;;
48951;SDS011;34758;42.148;24.744;2023-04-24T11:57:34;3.58;;;2.50;;
48951;SDS011;34758;42.148;24.744;2023-04-24T12:00:03;7.70;;;3.40;;
48951;SDS011;34758;42.148;24.744;2023-04-24T12:02:31;7.10;;;3.22;;
48951;SDS011;34758;42.148;24.744;2023-04-24T12:04:58;6.50;;;3.45;;
48951;SDS011;34758;42.148;24.744;2023-04-24T12:07:26;8.68;;;3.90;;
48951;SDS011;34758;42.148;24.744;2023-04-24T12:09:57;4.70;;;3.67;;
48951;SDS011;34758;42.148;24.744;2023-04-24T12:12:26;5.57;;;3.63;;
48951;SDS011;34758;42.148;24.744;2023-04-24T12:14:54;4.10;;;3.20;;
48951;SDS011;34758;42.148;24.744;2023-04-24T12:17:25;5.25;;;2.70;;
48951;SDS011;34758;42.148;24.744;2023-04-24T12:22:23;4.18;;;2.70;;
48951;SDS011;34758;42.148;24.744;2023-04-24T12:25:01;7.10;;;3.28;;
48951;SDS011;34758;42.148;24.744;2023-04-24T12:27:30;5.50;;;2.78;;
48951;SDS011;34758;42.148;24.744;2023-04-24T12:29:59;7.47;;;3.90;;
48951;SDS011;34758;42.148;24.744;2023-04-24T12:32:26;6.28;;;2.88;;
48951;SDS011;34758;42.148;24.744;2023-04-24T12:34:54;3.65;;;2.85;;
48951;SDS011;34758;42.148;24.744;2023-04-24T12:37:23;6.78;;;2.70;;
48951;SDS011;34758;42.148;24.744;2023-04-24T12:40:00;4.10;;;3.65;;
48951;SDS011;34758;42.148;24.744;2023-04-24T12:42:30;6.22;;;3.10;;
48951;SDS011;34758;42.148;24.744;2023-04-24T12:44:57;3.45;;;3.03;;
48951;SDS011;34758;42.148;24.744;2023-04-24T12:47:26;4.80;;;2.70;;
48951;SDS011;34758;42.148;24.744;2023-04-24T12:49:54;4.00;;;2.90;;
48951;SDS011;34758;42.148;24.744;2023-04-24T12:52:22;6.30;;;3.20;;
48951;SDS011;34758;42.148;24.744;2023-04-24T12:54:52;2.97;;;2.75;;
48951;SDS011;34758;42.148;24.744;2023-04-24T12:59:51;6.65;;;3.20;;
48951;SDS011;34758;42.148;24.744;2023-04-24T13:02:29;5.03;;;2.83;;
48951;SDS011;34758;42.148;24.744;2023-04-24T13:04:59;6.45;;;3.28;;
48951;SDS011;34758;42.148;24.744;2023-04-24T13:07:28;3.05;;;2.33;;
48951;SDS011;34758;42.148;24.744;2023-04-24T13:09:55;7.57;;;3.53;;
48951;SDS011;34758;42.148;24.744;2023-04-24T13:12:24;5.55;;;2.80;;
48951;SDS011;34758;42.148;24.744;2023-04-24T13:14:51;5.25;;;3.00;;
48951;SDS011;34758;42.148;24.744;2023-04-24T13:17:18;5.13;;;2.95;;
48951;SDS011;34758;42.148;24.744;2023-04-24T13:19:45;4.75;;;2.90;;
48951;SDS011;34758;42.148;24.744;2023-04-24T13:22:13;7.72;;;3.40;;
48951;SDS011;34758;42.148;24.744;2023-04-24T13:24:44;5.45;;;3.03;;
48951;SDS011;34758;42.148;24.744;2023-04-24T13:27:11;6.28;;;3.20;;
48951;SDS011;34758;42.148;24.744;2023-04-24T13:29:40;5.03;;;2.78;;
48951;SDS011;34758;42.148;24.744;2023-04-24T13:32:08;7.35;;;4.80;;
48951;SDS011;34758;42.148;24.744;2023-04-24T13:34:34;7.38;;;3.30;;
48951;SDS011;34758;42.148;24.744;2023-04-24T13:37:02;5.63;;;3.20;;
48951;SDS011;34758;42.148;24.744;2023-04-24T13:39:30;4.10;;;3.33;;
48951;SDS011;34758;42.148;24.744;2023-04-24T13:41:57;4.25;;;2.80;;
48951;SDS011;34758;42.148;24.744;2023-04-24T13:44:24;3.22;;;2.88;;
48951;SDS011;34758;42.148;24.744;2023-04-24T13:46:54;6.65;;;2.58;;
48951;SDS011;34758;42.148;24.744;2023-04-24T13:49:24;6.13;;;3.30;;
48951;SDS011;34758;42.148;24.744;2023-04-24T13:51:51;9.18;;;3.20;;
48951;SDS011;34758;42.148;24.744;2023-04-24T13:54:18;4.95;;;3.00;;
48951;SDS011;34758;42.148;24.744;2023-04-24T13:56:45;4.72;;;2.97;;
48951;SDS011;34758;42.148;24.744;2023-04-24T13:59:12;3.60;;;2.53;;
48951;SDS011;34758;42.148;24.744;2023-04-24T14:01:39;4.90;;;2.72;;
48951;SDS011;34758;42.148;24.744;2023-04-24T14:04:08;4.97;;;2.72;;
48951;SDS011;34758;42.148;24.744;2023-04-24T14:06:36;5.55;;;3.03;;
48951;SDS011;34758;42.148;24.744;2023-04-24T14:09:03;5.75;;;3.50;;
48951;SDS011;34758;42.148;24.744;2023-04-24T14:11:30;4.03;;;2.78;;
48951;SDS011;34758;42.148;24.744;2023-04-24T14:13:57;3.75;;;2.80;;
48951;SDS011;34758;42.148;24.744;2023-04-24T14:16:24;4.82;;;2.90;;
48951;SDS011;34758;42.148;24.744;2023-04-24T14:18:51;3.67;;;2.67;;
48951;SDS011;34758;42.148;24.744;2023-04-24T14:21:20;4.53;;;3.03;;
48951;SDS011;34758;42.148;24.744;2023-04-24T14:23:48;4.07;;;2.78;;
48951;SDS011;34758;42.148;24.744;2023-04-24T14:26:15;7.13;;;3.20;;
48951;SDS011;34758;42.148;24.744;2023-04-24T14:28:42;3.75;;;2.63;;
48951;SDS011;34758;42.148;24.744;2023-04-24T14:31:09;4.82;;;2.38;;
48951;SDS011;34758;42.148;24.744;2023-04-24T14:33:36;3.78;;;2.60;;
48951;SDS011;34758;42.148;24.744;2023-04-24T14:36:03;5.82;;;2.65;;
48951;SDS011;34758;42.148;24.744;2023-04-24T14:38:32;3.97;;;3.05;;
48951;SDS011;34758;42.148;24.744;2023-04-24T14:40:58;3.47;;;2.67;;
48951;SDS011;34758;42.148;24.744;2023-04-24T14:43:26;5.57;;;3.03;;
48951;SDS011;34758;42.148;24.744;2023-04-24T14:45:53;4.97;;;2.60;;